Time,TemperatureF,DewpointF,PressureIn,WindDirection,WindDirectionDegrees,WindSpeedMPH,WindSpeedGustMPH,Humidity,HourlyPrecipIn,Conditions,Clouds,dailyrainin,SoftwareType,DateUTC
2013-02-07 00:00:00,25.2,18.7,30.36,NW,321,0.0,0.0,76,0.00,,,0.04,meteohub,2013-02-07 05:00:00,
2013-02-07 00:01:00,25.2,18.7,30.36,NW,321,0.0,0.0,76,0.00,,,0.04,meteohub,2013-02-07 05:01:00,
2013-02-07 00:06:00,24.6,18.5,30.37,NW,321,0.0,0.0,77,0.00,,,0.00,meteohub,2013-02-07 05:06:00,
2013-02-07 00:11:00,24.4,18.5,30.37,NW,321,0.0,0.0,78,0.00,,,0.00,meteohub,2013-02-07 05:11:00,
2013-02-07 00:16:00,24.3,18.3,30.37,NW,321,0.0,0.0,78,0.00,,,0.00,meteohub,2013-02-07 05:16:00,
2013-02-07 00:21:00,24.1,18.5,30.37,NW,321,0.0,0.0,79,0.00,,,0.00,meteohub,2013-02-07 05:21:00,
2013-02-07 00:26:00,23.7,18.5,30.37,NW,321,0.0,0.0,80,0.00,,,0.00,meteohub,2013-02-07 05:26:00,
2013-02-07 00:31:00,23.5,18.3,30.37,NW,321,0.0,0.0,80,0.00,,,0.00,meteohub,2013-02-07 05:31:00,
2013-02-07 00:36:00,23.4,18.1,30.37,NW,321,0.0,0.0,80,0.00,,,0.00,meteohub,2013-02-07 05:36:00,
2013-02-07 00:41:00,23.2,18.0,30.37,NW,321,0.0,0.0,80,0.00,,,0.00,meteohub,2013-02-07 05:41:00,
2013-02-07 00:46:00,23.0,18.0,30.37,NW,321,0.0,0.0,81,0.00,,,0.00,meteohub,2013-02-07 05:46:00,
2013-02-07 00:51:00,22.8,18.0,30.37,NW,321,0.0,0.0,81,0.00,,,0.00,meteohub,2013-02-07 05:51:00,
2013-02-07 00:56:00,22.6,18.0,30.37,NW,321,0.0,0.0,82,0.00,,,0.00,meteohub,2013-02-07 05:56:00,
2013-02-07 01:01:00,22.6,17.8,30.37,NW,321,0.0,0.0,81,0.00,,,0.00,meteohub,2013-02-07 06:01:00,
2013-02-07 01:06:00,22.5,17.8,30.37,NW,321,0.0,0.0,82,0.00,,,0.00,meteohub,2013-02-07 06:06:00,
2013-02-07 01:11:00,22.3,17.6,30.37,NW,321,0.0,0.0,82,0.00,,,0.00,meteohub,2013-02-07 06:11:00,
2013-02-07 01:16:00,22.1,17.4,30.37,NW,321,0.0,0.0,82,0.00,,,0.00,meteohub,2013-02-07 06:16:00,
2013-02-07 01:21:00,21.9,17.2,30.36,NW,321,0.0,0.0,82,0.00,,,0.00,meteohub,2013-02-07 06:21:00,
2013-02-07 01:26:00,21.7,17.4,30.37,NW,321,0.0,0.0,83,0.00,,,0.00,meteohub,2013-02-07 06:26:00,
2013-02-07 01:31:00,21.7,17.4,30.37,NW,321,0.0,0.0,83,0.00,,,0.00,meteohub,2013-02-07 06:31:00,
2013-02-07 01:36:00,21.6,17.2,30.38,NW,321,0.0,0.0,83,0.00,,,0.00,meteohub,2013-02-07 06:36:00,
2013-02-07 01:41:00,21.6,17.4,30.38,NW,321,0.0,0.0,84,0.00,,,0.00,meteohub,2013-02-07 06:41:00,
2013-02-07 01:46:00,21.4,17.2,30.38,NW,321,0.0,0.0,84,0.00,,,0.00,meteohub,2013-02-07 06:46:00,
2013-02-07 01:51:00,21.2,17.1,30.38,NW,321,0.0,0.0,84,0.00,,,0.00,meteohub,2013-02-07 06:51:00,
2013-02-07 01:56:00,21.0,17.2,30.38,NW,321,0.0,0.0,85,0.00,,,0.00,meteohub,2013-02-07 06:56:00,
2013-02-07 02:01:00,21.0,17.2,30.39,NW,321,0.0,0.0,85,0.00,,,0.00,meteohub,2013-02-07 07:01:00,
2013-02-07 02:06:00,21.0,17.2,30.39,NW,321,0.0,0.0,85,0.00,,,0.00,meteohub,2013-02-07 07:06:00,
2013-02-07 02:11:00,21.0,17.2,30.39,NW,321,0.0,0.0,85,0.00,,,0.00,meteohub,2013-02-07 07:11:00,
2013-02-07 02:16:00,21.0,17.2,30.40,NW,321,0.0,0.0,85,0.00,,,0.00,meteohub,2013-02-07 07:16:00,
2013-02-07 02:21:00,21.0,17.2,30.40,NW,321,0.0,0.0,85,0.00,,,0.00,meteohub,2013-02-07 07:21:00,
2013-02-07 02:26:00,20.8,17.1,30.40,NW,321,0.0,0.0,85,0.00,,,0.00,meteohub,2013-02-07 07:26:00,
2013-02-07 02:31:00,20.8,17.1,30.40,NW,321,0.0,0.0,85,0.00,,,0.00,meteohub,2013-02-07 07:31:00,
2013-02-07 02:36:00,20.7,16.9,30.40,NW,321,0.0,0.0,85,0.00,,,0.00,meteohub,2013-02-07 07:36:00,
2013-02-07 02:41:00,20.7,17.1,30.40,NW,321,0.0,0.0,86,0.00,,,0.00,meteohub,2013-02-07 07:41:00,
2013-02-07 02:46:00,20.5,16.9,30.40,NW,321,0.0,0.0,86,0.00,,,0.00,meteohub,2013-02-07 07:46:00,
2013-02-07 02:51:00,20.5,16.9,30.40,NW,321,0.0,0.0,86,0.00,,,0.00,meteohub,2013-02-07 07:51:00,
2013-02-07 02:56:00,20.1,16.7,30.41,NW,321,0.0,0.0,86,0.00,,,0.00,meteohub,2013-02-07 07:56:00,
2013-02-07 03:02:00,20.1,16.7,30.41,NW,321,0.0,0.0,86,0.00,,,0.00,meteohub,2013-02-07 08:02:00,
2013-02-07 03:07:00,19.9,16.5,30.41,NW,321,0.0,0.0,86,0.00,,,0.00,meteohub,2013-02-07 08:07:00,
2013-02-07 03:12:00,19.9,16.5,30.41,NW,321,0.0,0.0,86,0.00,,,0.00,meteohub,2013-02-07 08:12:00,
2013-02-07 03:17:00,19.9,16.7,30.41,NW,321,0.0,0.0,87,0.00,,,0.00,meteohub,2013-02-07 08:17:00,
2013-02-07 03:22:00,19.9,16.5,30.40,NW,321,0.0,0.0,86,0.00,,,0.00,meteohub,2013-02-07 08:22:00,
2013-02-07 03:27:00,19.8,16.5,30.40,NW,321,0.0,0.0,87,0.00,,,0.00,meteohub,2013-02-07 08:27:00,
2013-02-07 03:32:00,19.8,16.5,30.40,NW,321,0.0,0.0,87,0.00,,,0.00,meteohub,2013-02-07 08:32:00,
2013-02-07 03:37:00,19.8,16.5,30.40,NW,321,0.0,0.0,87,0.00,,,0.00,meteohub,2013-02-07 08:37:00,
2013-02-07 03:42:00,19.8,16.7,30.41,NW,321,0.0,0.0,88,0.00,,,0.00,meteohub,2013-02-07 08:42:00,
2013-02-07 03:47:00,19.8,16.7,30.41,NW,321,0.0,0.0,88,0.00,,,0.00,meteohub,2013-02-07 08:47:00,
2013-02-07 03:52:00,19.8,16.7,30.41,NW,321,0.0,0.0,88,0.00,,,0.00,meteohub,2013-02-07 08:52:00,
2013-02-07 03:57:00,19.8,16.7,30.41,NW,321,0.0,0.0,88,0.00,,,0.00,meteohub,2013-02-07 08:57:00,
2013-02-07 04:02:00,19.8,16.7,30.41,NW,321,0.0,0.0,88,0.00,,,0.00,meteohub,2013-02-07 09:02:00,
2013-02-07 04:07:00,19.8,16.7,30.41,NW,321,0.0,0.0,88,0.00,,,0.00,meteohub,2013-02-07 09:07:00,
2013-02-07 04:12:00,19.8,16.7,30.41,NW,321,0.0,0.0,88,0.00,,,0.00,meteohub,2013-02-07 09:12:00,
2013-02-07 04:17:00,19.8,16.7,30.41,NW,321,0.0,0.0,88,0.00,,,0.00,meteohub,2013-02-07 09:17:00,
2013-02-07 04:22:00,19.8,16.7,30.40,NW,321,0.0,0.0,88,0.00,,,0.00,meteohub,2013-02-07 09:22:00,
2013-02-07 04:27:00,19.8,16.7,30.41,NW,321,0.0,0.0,88,0.00,,,0.00,meteohub,2013-02-07 09:27:00,
2013-02-07 04:32:00,19.8,17.1,30.41,NW,321,0.0,0.0,89,0.00,,,0.00,meteohub,2013-02-07 09:32:00,
2013-02-07 04:37:00,19.8,17.1,30.40,NW,321,0.0,0.0,89,0.00,,,0.00,meteohub,2013-02-07 09:37:00,
2013-02-07 04:42:00,19.8,17.1,30.40,NW,321,0.0,0.0,89,0.00,,,0.00,meteohub,2013-02-07 09:42:00,
2013-02-07 04:47:00,19.8,17.1,30.40,NW,321,0.0,0.0,89,0.00,,,0.00,meteohub,2013-02-07 09:47:00,
2013-02-07 04:52:00,19.8,17.1,30.40,NW,321,0.0,0.0,89,0.00,,,0.00,meteohub,2013-02-07 09:52:00,
2013-02-07 04:57:00,19.8,17.1,30.40,NW,321,0.0,0.0,89,0.00,,,0.00,meteohub,2013-02-07 09:57:00,
2013-02-07 05:02:00,19.8,17.2,30.40,NW,321,0.0,0.0,90,0.00,,,0.00,meteohub,2013-02-07 10:02:00,
2013-02-07 05:07:00,19.8,17.2,30.40,NW,321,0.0,0.0,90,0.00,,,0.00,meteohub,2013-02-07 10:07:00,
2013-02-07 05:12:00,19.8,17.2,30.40,NW,321,0.0,0.0,90,0.00,,,0.00,meteohub,2013-02-07 10:12:00,
2013-02-07 05:17:00,19.9,17.4,30.40,NW,321,0.0,0.0,90,0.00,,,0.00,meteohub,2013-02-07 10:17:00,
2013-02-07 05:22:00,20.1,17.6,30.40,NW,321,0.0,0.0,90,0.00,,,0.00,meteohub,2013-02-07 10:22:00,
2013-02-07 05:27:00,20.3,17.8,30.41,NW,321,0.0,0.0,90,0.00,,,0.00,meteohub,2013-02-07 10:27:00,
2013-02-07 05:32:00,20.5,18.0,30.41,NW,321,0.0,0.0,90,0.00,,,0.00,meteohub,2013-02-07 10:32:00,
2013-02-07 05:37:00,20.7,18.5,30.41,NW,321,0.0,1.0,91,0.00,,,0.00,meteohub,2013-02-07 10:37:00,
2013-02-07 05:42:00,20.8,18.7,30.42,NW,321,0.0,1.0,91,0.00,,,0.00,meteohub,2013-02-07 10:42:00,
2013-02-07 05:47:00,21.0,18.9,30.42,NW,321,0.0,1.0,91,0.00,,,0.00,meteohub,2013-02-07 10:47:00,
2013-02-07 05:52:00,21.2,19.0,30.42,NW,321,0.0,1.0,91,0.00,,,0.00,meteohub,2013-02-07 10:52:00,
2013-02-07 05:57:00,21.2,19.0,30.43,NW,321,0.0,0.0,91,0.00,,,0.00,meteohub,2013-02-07 10:57:00,
2013-02-07 06:02:00,21.2,19.0,30.43,NW,321,0.0,0.0,91,0.00,,,0.00,meteohub,2013-02-07 11:02:00,
2013-02-07 06:07:00,21.4,18.9,30.43,NW,321,0.0,0.0,90,0.00,,,0.00,meteohub,2013-02-07 11:07:00,
2013-02-07 06:12:00,21.6,19.0,30.43,NW,321,0.0,0.0,90,0.00,,,0.00,meteohub,2013-02-07 11:12:00,
2013-02-07 06:17:00,21.6,19.4,30.43,NW,321,0.0,0.0,91,0.00,,,0.00,meteohub,2013-02-07 11:17:00,
2013-02-07 06:22:00,21.7,19.2,30.43,NW,321,0.0,0.0,90,0.00,,,0.00,meteohub,2013-02-07 11:22:00,
2013-02-07 06:27:00,21.9,19.4,30.43,NW,321,0.0,0.0,90,0.00,,,0.00,meteohub,2013-02-07 11:27:00,
2013-02-07 06:32:00,21.9,19.4,30.43,NW,321,0.0,0.0,90,0.00,,,0.00,meteohub,2013-02-07 11:32:00,
2013-02-07 06:37:00,22.1,19.6,30.43,NW,321,0.0,0.0,90,0.00,,,0.00,meteohub,2013-02-07 11:37:00,
2013-02-07 06:42:00,22.3,19.8,30.44,NW,321,0.0,0.0,90,0.00,,,0.00,meteohub,2013-02-07 11:42:00,
2013-02-07 06:47:00,22.3,19.8,30.44,NW,321,0.0,1.0,90,0.00,,,0.00,meteohub,2013-02-07 11:47:00,
2013-02-07 06:52:00,22.5,19.9,30.45,NW,321,0.0,1.0,90,0.00,,,0.00,meteohub,2013-02-07 11:52:00,
2013-02-07 06:57:00,22.6,20.1,30.45,NW,321,0.0,1.0,90,0.00,,,0.00,meteohub,2013-02-07 11:57:00,
2013-02-07 07:02:00,22.6,20.1,30.45,NW,321,0.0,0.0,90,0.00,,,0.00,meteohub,2013-02-07 12:02:00,
2013-02-07 07:07:00,22.6,19.9,30.45,NW,321,1.0,1.0,89,0.00,,,0.00,meteohub,2013-02-07 12:07:00,
2013-02-07 07:12:00,22.8,20.1,30.45,NW,321,0.0,1.0,89,0.00,,,0.00,meteohub,2013-02-07 12:12:00,
2013-02-07 07:17:00,23.0,19.9,30.46,NW,321,0.0,1.0,88,0.00,,,0.00,meteohub,2013-02-07 12:17:00,
2013-02-07 07:22:00,23.2,19.9,30.46,NW,321,1.0,1.0,87,0.00,,,0.00,meteohub,2013-02-07 12:22:00,
2013-02-07 07:27:00,23.4,19.8,30.46,NW,321,0.0,1.0,86,0.00,,,0.00,meteohub,2013-02-07 12:27:00,
2013-02-07 07:32:00,23.4,19.8,30.47,NW,322,0.0,1.0,86,0.00,,,0.00,meteohub,2013-02-07 12:32:00,
2013-02-07 07:37:00,23.5,19.4,30.47,NW,322,2.0,2.0,84,0.00,,,0.00,meteohub,2013-02-07 12:37:00,
2013-02-07 07:42:00,23.7,19.4,30.47,North,349,1.0,2.0,83,0.00,,,0.00,meteohub,2013-02-07 12:42:00,
2013-02-07 07:47:00,24.1,19.4,30.47,NE,42,1.0,2.0,82,0.00,,,0.00,meteohub,2013-02-07 12:47:00,
2013-02-07 07:52:00,24.1,19.4,30.47,NE,47,1.0,2.0,82,0.00,,,0.00,meteohub,2013-02-07 12:52:00,
2013-02-07 07:57:00,24.3,19.2,30.47,ENE,63,3.0,3.0,81,0.00,,,0.00,meteohub,2013-02-07 12:57:00,
2013-02-07 08:02:00,24.4,19.2,30.47,ENE,76,0.0,4.0,80,0.00,,,0.00,meteohub,2013-02-07 13:02:00,
2013-02-07 08:07:00,24.4,18.9,30.47,ENE,60,2.0,4.0,79,0.00,,,0.00,meteohub,2013-02-07 13:07:00,
2013-02-07 08:12:00,24.6,19.0,30.47,ENE,61,3.0,4.0,79,0.00,,,0.00,meteohub,2013-02-07 13:12:00,
2013-02-07 08:17:00,24.6,18.7,30.47,NE,49,0.0,4.0,78,0.00,,,0.00,meteohub,2013-02-07 13:17:00,
2013-02-07 08:22:00,24.6,18.5,30.48,NE,53,4.0,5.0,77,0.00,,,0.00,meteohub,2013-02-07 13:22:00,
2013-02-07 08:27:00,24.6,18.5,30.48,ENE,57,2.0,5.0,77,0.00,,,0.00,meteohub,2013-02-07 13:27:00,
2013-02-07 08:32:00,24.6,18.5,30.48,ENE,59,0.0,5.0,77,0.00,,,0.00,meteohub,2013-02-07 13:32:00,
2013-02-07 08:37:00,24.8,18.7,30.48,ENE,59,2.0,5.0,77,0.00,,,0.00,meteohub,2013-02-07 13:37:00,
2013-02-07 08:42:00,25.0,18.5,30.47,ENE,67,1.0,5.0,76,0.00,,,0.00,meteohub,2013-02-07 13:42:00,
2013-02-07 08:47:00,25.0,18.1,30.48,ENE,64,3.0,5.0,75,0.00,,,0.00,meteohub,2013-02-07 13:47:00,
2013-02-07 08:52:00,25.0,17.6,30.48,ENE,64,2.0,5.0,73,0.00,,,0.00,meteohub,2013-02-07 13:52:00,
2013-02-07 08:57:00,25.2,17.8,30.47,NE,53,2.0,5.0,73,0.00,,,0.00,meteohub,2013-02-07 13:57:00,
2013-02-07 09:02:00,25.3,18.0,30.48,ENE,60,1.0,5.0,73,0.00,,,0.00,meteohub,2013-02-07 14:02:00,
2013-02-07 09:07:00,25.3,17.6,30.48,ENE,70,0.0,5.0,72,0.00,,,0.00,meteohub,2013-02-07 14:07:00,
2013-02-07 09:12:00,25.5,17.8,30.48,ENE,59,2.0,5.0,72,0.00,,,0.00,meteohub,2013-02-07 14:12:00,
2013-02-07 09:17:00,25.5,17.4,30.48,ENE,60,0.0,5.0,71,0.00,,,0.00,meteohub,2013-02-07 14:17:00,
2013-02-07 09:22:00,25.9,17.8,30.48,ENE,59,0.0,5.0,71,0.00,,,0.00,meteohub,2013-02-07 14:22:00,
2013-02-07 09:27:00,25.9,17.4,30.48,ENE,69,2.0,5.0,70,0.00,,,0.00,meteohub,2013-02-07 14:27:00,
2013-02-07 09:32:00,26.2,17.4,30.48,NE,55,3.0,5.0,69,0.00,,,0.00,meteohub,2013-02-07 14:32:00,
2013-02-07 09:37:00,26.2,17.4,30.48,ENE,61,1.0,5.0,69,0.00,,,0.00,meteohub,2013-02-07 14:37:00,
2013-02-07 09:42:00,26.6,17.8,30.48,ENE,69,3.0,5.0,69,0.00,,,0.00,meteohub,2013-02-07 14:42:00,
2013-02-07 09:47:00,26.8,17.6,30.48,NE,55,3.0,5.0,68,0.00,,,0.00,meteohub,2013-02-07 14:47:00,
2013-02-07 09:52:00,27.0,17.4,30.48,ENE,63,4.0,5.0,67,0.00,,,0.00,meteohub,2013-02-07 14:52:00,
2013-02-07 09:57:00,27.1,17.6,30.48,ENE,57,2.0,5.0,67,0.00,,,0.00,meteohub,2013-02-07 14:57:00,
2013-02-07 10:02:00,27.3,17.4,30.48,ENE,68,1.0,5.0,66,0.00,,,0.00,meteohub,2013-02-07 15:02:00,
2013-02-07 10:07:00,27.3,17.4,30.48,ENE,68,0.0,5.0,66,0.00,,,0.00,meteohub,2013-02-07 15:07:00,
2013-02-07 10:12:00,27.3,17.4,30.48,ENE,57,4.0,5.0,66,0.00,,,0.00,meteohub,2013-02-07 15:12:00,
2013-02-07 10:17:00,27.7,17.4,30.48,ENE,59,5.0,5.0,65,0.00,,,0.00,meteohub,2013-02-07 15:17:00,
2013-02-07 10:22:00,27.9,17.2,30.48,ENE,77,0.0,5.0,64,0.00,,,0.00,meteohub,2013-02-07 15:22:00,
2013-02-07 10:27:00,28.0,17.8,30.48,ENE,58,3.0,5.0,65,0.00,,,0.00,meteohub,2013-02-07 15:27:00,
2013-02-07 10:33:00,28.2,17.2,30.48,NE,53,3.0,5.0,63,0.00,,,0.00,meteohub,2013-02-07 15:33:00,
2013-02-07 10:38:00,28.6,17.6,30.47,East,83,0.0,5.0,63,0.00,,,0.00,meteohub,2013-02-07 15:38:00,
2013-02-07 10:43:00,28.8,17.8,30.47,SE,141,2.0,5.0,63,0.00,,,0.00,meteohub,2013-02-07 15:43:00,
2013-02-07 10:48:00,28.8,17.8,30.48,ENE,67,3.0,5.0,63,0.00,,,0.00,meteohub,2013-02-07 15:48:00,
2013-02-07 10:53:00,29.1,18.1,30.48,ENE,73,1.0,4.0,63,0.00,,,0.00,meteohub,2013-02-07 15:53:00,
2013-02-07 10:58:00,29.5,18.1,30.48,NE,53,2.0,4.0,62,0.00,,,0.00,meteohub,2013-02-07 15:58:00,
2013-02-07 11:03:00,29.5,17.8,30.48,SSE,154,0.0,4.0,61,0.00,,,0.00,meteohub,2013-02-07 16:03:00,
2013-02-07 11:08:00,29.5,17.2,30.48,SSE,154,2.0,4.0,60,0.00,,,0.00,meteohub,2013-02-07 16:08:00,
2013-02-07 11:13:00,29.7,17.8,30.48,East,93,2.0,3.0,61,0.00,,,0.00,meteohub,2013-02-07 16:13:00,
2013-02-07 11:18:00,29.8,18.0,30.47,ENE,65,1.0,5.0,61,0.00,,,0.00,meteohub,2013-02-07 16:18:00,
2013-02-07 11:23:00,30.2,18.0,30.47,ENE,66,0.0,5.0,60,0.00,,,0.00,meteohub,2013-02-07 16:23:00,
2013-02-07 11:28:00,30.4,18.1,30.47,ENE,64,0.0,5.0,60,0.00,,,0.00,meteohub,2013-02-07 16:28:00,
2013-02-07 11:33:00,30.6,18.3,30.46,East,81,1.0,5.0,60,0.00,,,0.00,meteohub,2013-02-07 16:33:00,
2013-02-07 11:38:00,30.7,18.9,30.46,ENE,57,3.0,5.0,61,0.00,,,0.00,meteohub,2013-02-07 16:38:00,
2013-02-07 11:43:00,30.9,18.0,30.45,ENE,73,0.0,5.0,58,0.00,,,0.00,meteohub,2013-02-07 16:43:00,
2013-02-07 11:48:00,30.7,18.1,30.45,East,95,0.0,5.0,59,0.00,,,0.00,meteohub,2013-02-07 16:48:00,
2013-02-07 11:53:00,30.6,18.0,30.44,East,79,0.0,5.0,59,0.00,,,0.00,meteohub,2013-02-07 16:53:00,
2013-02-07 11:58:00,30.7,18.1,30.44,ENE,75,2.0,5.0,59,0.00,,,0.00,meteohub,2013-02-07 16:58:00,
2013-02-07 12:03:00,30.7,18.1,30.44,East,98,0.0,4.0,59,0.00,,,0.00,meteohub,2013-02-07 17:03:00,
2013-02-07 12:08:00,30.7,18.1,30.43,East,82,1.0,4.0,59,0.00,,,0.00,meteohub,2013-02-07 17:08:00,
2013-02-07 12:13:00,30.7,18.5,30.44,ENE,64,2.0,4.0,60,0.00,,,0.00,meteohub,2013-02-07 17:13:00,
2013-02-07 12:18:00,30.9,18.3,30.43,ESE,117,1.0,4.0,59,0.00,,,0.00,meteohub,2013-02-07 17:18:00,
2013-02-07 12:23:00,30.9,18.3,30.43,ESE,116,2.0,4.0,59,0.00,,,0.00,meteohub,2013-02-07 17:23:00,
2013-02-07 12:28:00,30.9,18.0,30.43,ESE,118,0.0,4.0,58,0.00,,,0.00,meteohub,2013-02-07 17:28:00,
2013-02-07 12:33:00,31.1,18.1,30.43,SSE,160,0.0,4.0,58,0.00,,,0.00,meteohub,2013-02-07 17:33:00,
2013-02-07 12:38:00,31.3,18.7,30.43,South,178,0.0,4.0,59,0.00,,,0.00,meteohub,2013-02-07 17:38:00,
2013-02-07 12:43:00,31.5,18.0,30.42,East,97,2.0,5.0,57,0.00,,,0.00,meteohub,2013-02-07 17:43:00,
2013-02-07 12:48:00,31.5,18.0,30.42,SE,142,2.0,5.0,57,0.00,,,0.00,meteohub,2013-02-07 17:48:00,
2013-02-07 12:53:00,31.5,18.0,30.42,SSE,165,2.0,5.0,57,0.00,,,0.00,meteohub,2013-02-07 17:53:00,
2013-02-07 12:58:00,31.6,18.1,30.42,ESE,120,2.0,5.0,57,0.00,,,0.00,meteohub,2013-02-07 17:58:00,
2013-02-07 13:03:00,31.6,18.1,30.42,SSE,148,0.0,5.0,57,0.00,,,0.00,meteohub,2013-02-07 18:03:00,
2013-02-07 13:08:00,31.6,17.8,30.41,SE,146,0.0,5.0,56,0.00,,,0.00,meteohub,2013-02-07 18:08:00,
2013-02-07 13:13:00,31.8,18.0,30.41,SSE,149,2.0,4.0,56,0.00,,,0.00,meteohub,2013-02-07 18:13:00,
2013-02-07 13:18:00,31.8,18.3,30.41,SSE,149,0.0,5.0,57,0.00,,,0.00,meteohub,2013-02-07 18:18:00,
2013-02-07 13:23:00,32.0,18.1,30.41,ENE,71,2.0,5.0,56,0.00,,,0.00,meteohub,2013-02-07 18:23:00,
2013-02-07 13:28:00,32.2,17.8,30.40,SSE,155,1.0,5.0,55,0.00,,,0.00,meteohub,2013-02-07 18:28:00,
2013-02-07 13:33:00,32.4,18.0,30.40,East,84,2.0,5.0,55,0.00,,,0.00,meteohub,2013-02-07 18:33:00,
2013-02-07 13:38:00,32.5,17.8,30.40,East,93,1.0,5.0,54,0.00,,,0.00,meteohub,2013-02-07 18:38:00,
2013-02-07 13:43:00,32.5,17.8,30.40,SSE,152,0.0,4.0,54,0.00,,,0.00,meteohub,2013-02-07 18:43:00,
2013-02-07 13:48:00,32.5,16.9,30.40,SE,139,3.0,4.0,52,0.00,,,0.00,meteohub,2013-02-07 18:48:00,
2013-02-07 13:53:00,32.5,17.2,30.39,SSE,161,2.0,6.0,53,0.00,,,0.00,meteohub,2013-02-07 18:53:00,
2013-02-07 13:58:00,32.7,17.4,30.39,East,92,1.0,6.0,53,0.00,,,0.00,meteohub,2013-02-07 18:58:00,
2013-02-07 14:04:00,32.7,15.6,30.39,SSE,157,2.0,6.0,49,0.00,,,0.00,meteohub,2013-02-07 19:04:00,
2013-02-07 14:09:00,32.7,16.2,30.39,ESE,113,0.0,4.0,50,0.00,,,0.00,meteohub,2013-02-07 19:09:00,
2013-02-07 14:14:00,32.7,17.1,30.39,ESE,114,1.0,4.0,52,0.00,,,0.00,meteohub,2013-02-07 19:14:00,
2013-02-07 14:19:00,32.7,17.1,30.39,SSE,150,0.0,4.0,52,0.00,,,0.00,meteohub,2013-02-07 19:19:00,
2013-02-07 14:24:00,32.7,17.1,30.39,ESE,123,2.0,3.0,52,0.00,,,0.00,meteohub,2013-02-07 19:24:00,
2013-02-07 14:29:00,32.7,16.5,30.38,NE,50,2.0,4.0,51,0.00,,,0.00,meteohub,2013-02-07 19:29:00,
2013-02-07 14:34:00,32.7,17.1,30.39,SSE,157,1.0,4.0,52,0.00,,,0.00,meteohub,2013-02-07 19:34:00,
2013-02-07 14:39:00,32.9,17.2,30.38,SSE,152,0.0,4.0,52,0.00,,,0.00,meteohub,2013-02-07 19:39:00,
2013-02-07 14:44:00,32.9,16.7,30.38,ESE,110,0.0,3.0,51,0.00,,,0.00,meteohub,2013-02-07 19:44:00,
2013-02-07 14:49:00,32.7,17.4,30.38,East,87,0.0,3.0,53,0.00,,,0.00,meteohub,2013-02-07 19:49:00,
2013-02-07 14:54:00,32.9,17.6,30.38,East,99,0.0,3.0,53,0.00,,,0.00,meteohub,2013-02-07 19:54:00,
2013-02-07 14:59:00,32.9,18.1,30.38,ESE,109,0.0,3.0,54,0.00,,,0.00,meteohub,2013-02-07 19:59:00,
2013-02-07 15:04:00,33.1,18.7,30.38,ESE,109,1.0,3.0,55,0.00,,,0.00,meteohub,2013-02-07 20:04:00,
2013-02-07 15:09:00,33.1,17.8,30.38,East,100,2.0,3.0,53,0.00,,,0.00,meteohub,2013-02-07 20:09:00,
2013-02-07 15:14:00,33.1,17.8,30.37,East,100,1.0,4.0,53,0.00,,,0.00,meteohub,2013-02-07 20:14:00,
2013-02-07 15:19:00,32.9,17.6,30.37,SSE,150,2.0,4.0,53,0.00,,,0.00,meteohub,2013-02-07 20:19:00,
2013-02-07 15:24:00,32.9,18.5,30.37,SE,145,2.0,4.0,55,0.00,,,0.00,meteohub,2013-02-07 20:24:00,
2013-02-07 15:29:00,33.1,18.7,30.37,SSE,159,0.0,4.0,55,0.00,,,0.00,meteohub,2013-02-07 20:29:00,
2013-02-07 15:34:00,33.1,18.7,30.37,SE,134,0.0,4.0,55,0.00,,,0.00,meteohub,2013-02-07 20:34:00,
2013-02-07 15:39:00,33.1,18.3,30.37,SSE,152,0.0,4.0,54,0.00,,,0.00,meteohub,2013-02-07 20:39:00,
2013-02-07 15:44:00,33.1,18.7,30.36,SE,127,0.0,4.0,55,0.00,,,0.00,meteohub,2013-02-07 20:44:00,
2013-02-07 15:49:00,33.1,18.7,30.36,ENE,76,0.0,4.0,55,0.00,,,0.00,meteohub,2013-02-07 20:49:00,
2013-02-07 15:54:00,33.1,18.7,30.36,ENE,76,1.0,4.0,55,0.00,,,0.00,meteohub,2013-02-07 20:54:00,
2013-02-07 15:59:00,33.1,19.0,30.36,ENE,76,0.0,3.0,56,0.00,,,0.00,meteohub,2013-02-07 20:59:00,
2013-02-07 16:04:00,33.1,18.7,30.36,ENE,76,0.0,3.0,55,0.00,,,0.00,meteohub,2013-02-07 21:04:00,
2013-02-07 16:09:00,33.1,18.7,30.35,East,83,0.0,2.0,55,0.00,,,0.00,meteohub,2013-02-07 21:09:00,
2013-02-07 16:14:00,33.1,19.0,30.35,East,83,1.0,3.0,56,0.00,,,0.00,meteohub,2013-02-07 21:14:00,
2013-02-07 16:19:00,33.3,18.9,30.35,ENE,65,0.0,3.0,55,0.00,,,0.00,meteohub,2013-02-07 21:19:00,
2013-02-07 16:24:00,33.1,18.7,30.35,ENE,65,1.0,4.0,55,0.00,,,0.00,meteohub,2013-02-07 21:24:00,
2013-02-07 16:29:00,33.1,18.7,30.35,ENE,65,0.0,4.0,55,0.00,,,0.00,meteohub,2013-02-07 21:29:00,
2013-02-07 16:34:00,33.1,18.7,30.35,ENE,65,0.0,4.0,55,0.00,,,0.00,meteohub,2013-02-07 21:34:00,
2013-02-07 16:39:00,33.1,19.0,30.35,ENE,65,1.0,2.0,56,0.00,,,0.00,meteohub,2013-02-07 21:39:00,
2013-02-07 16:44:00,33.1,19.0,30.35,ENE,65,0.0,2.0,56,0.00,,,0.00,meteohub,2013-02-07 21:44:00,
2013-02-07 16:49:00,32.9,19.4,30.35,ENE,65,0.0,2.0,57,0.00,,,0.00,meteohub,2013-02-07 21:49:00,
2013-02-07 16:54:00,32.9,18.9,30.35,ENE,66,1.0,2.0,56,0.00,,,0.00,meteohub,2013-02-07 21:54:00,
2013-02-07 16:59:00,32.7,19.2,30.35,ENE,65,0.0,2.0,57,0.00,,,0.00,meteohub,2013-02-07 21:59:00,
2013-02-07 17:04:00,32.7,19.6,30.35,ENE,65,0.0,2.0,58,0.00,,,0.00,meteohub,2013-02-07 22:04:00,
2013-02-07 17:09:00,32.5,19.4,30.35,ENE,65,0.0,2.0,58,0.00,,,0.00,meteohub,2013-02-07 22:09:00,
2013-02-07 17:14:00,32.4,19.2,30.35,ENE,66,0.0,2.0,58,0.00,,,0.00,meteohub,2013-02-07 22:14:00,
2013-02-07 17:19:00,32.4,19.2,30.35,ENE,65,0.0,2.0,58,0.00,,,0.00,meteohub,2013-02-07 22:19:00,
2013-02-07 17:24:00,32.2,19.0,30.35,ENE,66,2.0,3.0,58,0.00,,,0.00,meteohub,2013-02-07 22:24:00,
2013-02-07 17:30:00,32.2,19.4,30.35,ENE,65,0.0,4.0,59,0.00,,,0.00,meteohub,2013-02-07 22:30:00,
2013-02-07 17:35:00,32.0,19.2,30.35,ENE,66,1.0,4.0,59,0.00,,,0.00,meteohub,2013-02-07 22:35:00,
2013-02-07 17:40:00,31.8,19.6,30.35,ENE,65,0.0,4.0,60,0.00,,,0.00,meteohub,2013-02-07 22:40:00,
2013-02-07 17:45:00,31.6,19.4,30.35,ENE,66,0.0,3.0,60,0.00,,,0.00,meteohub,2013-02-07 22:45:00,
2013-02-07 17:50:00,31.5,19.6,30.35,ENE,65,0.0,2.0,61,0.00,,,0.00,meteohub,2013-02-07 22:50:00,
2013-02-07 17:55:00,31.5,19.6,30.35,ENE,66,0.0,2.0,61,0.00,,,0.00,meteohub,2013-02-07 22:55:00,
2013-02-07 18:00:00,31.5,19.6,30.36,ENE,66,3.0,3.0,61,0.00,,,0.00,meteohub,2013-02-07 23:00:00,
2013-02-07 18:05:00,31.5,19.6,30.35,ENE,65,2.0,3.0,61,0.00,,,0.00,meteohub,2013-02-07 23:05:00,
2013-02-07 18:10:00,31.5,19.6,30.36,ENE,60,3.0,4.0,61,0.00,,,0.00,meteohub,2013-02-07 23:10:00,
2013-02-07 18:15:00,31.5,19.6,30.36,ENE,60,0.0,4.0,61,0.00,,,0.00,meteohub,2013-02-07 23:15:00,
2013-02-07 18:20:00,31.5,19.9,30.36,ENE,60,0.0,4.0,62,0.00,,,0.00,meteohub,2013-02-07 23:20:00,
2013-02-07 18:25:00,31.5,19.9,30.37,ENE,60,0.0,3.0,62,0.00,,,0.00,meteohub,2013-02-07 23:25:00,
2013-02-07 18:30:00,31.5,20.3,30.37,ENE,60,1.0,3.0,63,0.00,,,0.00,meteohub,2013-02-07 23:30:00,
2013-02-07 18:35:00,31.5,20.3,30.37,ENE,60,0.0,3.0,63,0.00,,,0.00,meteohub,2013-02-07 23:35:00,
2013-02-07 18:40:00,31.5,20.3,30.37,ENE,71,1.0,4.0,63,0.00,,,0.00,meteohub,2013-02-07 23:40:00,
2013-02-07 18:45:00,31.5,20.7,30.37,ENE,71,0.0,4.0,64,0.00,,,0.00,meteohub,2013-02-07 23:45:00,
2013-02-07 18:50:00,31.5,20.7,30.37,ENE,71,0.0,4.0,64,0.00,,,0.00,meteohub,2013-02-07 23:50:00,
2013-02-07 18:55:00,31.5,20.7,30.36,ENE,71,0.0,3.0,64,0.00,,,0.00,meteohub,2013-02-07 23:55:00,
2013-02-07 19:00:00,31.5,21.0,30.36,ENE,65,0.0,4.0,65,0.00,,,0.00,meteohub,2013-02-08 00:00:00,
2013-02-07 19:05:00,31.5,21.4,30.36,ENE,67,3.0,4.0,66,0.00,,,0.00,meteohub,2013-02-08 00:05:00,
2013-02-07 19:10:00,31.5,21.7,30.37,ENE,76,1.0,4.0,67,0.00,,,0.00,meteohub,2013-02-08 00:10:00,
2013-02-07 19:15:00,31.5,22.1,30.37,ENE,63,3.0,7.0,68,0.00,,,0.00,meteohub,2013-02-08 00:15:00,
2013-02-07 19:20:00,31.3,22.3,30.37,ENE,69,0.0,7.0,69,0.00,,,0.00,meteohub,2013-02-08 00:20:00,
2013-02-07 19:25:00,31.3,22.3,30.37,ENE,78,0.0,7.0,69,0.00,,,0.00,meteohub,2013-02-08 00:25:00,
2013-02-07 19:30:00,31.3,22.6,30.36,ENE,65,0.0,4.0,70,0.00,,,0.00,meteohub,2013-02-08 00:30:00,
2013-02-07 19:35:00,31.1,22.8,30.36,ENE,66,0.0,4.0,71,0.00,,,0.00,meteohub,2013-02-08 00:35:00,
2013-02-07 19:40:00,31.1,22.8,30.36,ENE,75,2.0,5.0,71,0.00,,,0.00,meteohub,2013-02-08 00:40:00,
2013-02-07 19:45:00,30.9,23.0,30.36,ENE,76,0.0,5.0,72,0.00,,,0.00,meteohub,2013-02-08 00:45:00,
2013-02-07 19:50:00,30.9,23.4,30.36,ENE,71,2.0,5.0,73,0.00,,,0.00,meteohub,2013-02-08 00:50:00,
2013-02-07 19:55:00,30.7,23.2,30.36,East,94,0.0,4.0,73,0.00,,,0.00,meteohub,2013-02-08 00:55:00,
2013-02-07 20:00:00,30.6,23.0,30.37,ENE,57,0.0,7.0,73,0.00,,,0.00,meteohub,2013-02-08 01:00:00,
2013-02-07 20:05:00,30.6,23.2,30.36,ESE,103,1.0,7.0,74,0.00,,,0.00,meteohub,2013-02-08 01:05:00,
2013-02-07 20:10:00,30.6,23.2,30.36,ENE,65,0.0,7.0,74,0.00,,,0.00,meteohub,2013-02-08 01:10:00,
2013-02-07 20:15:00,30.4,23.2,30.36,NE,56,2.0,4.0,74,0.00,,,0.00,meteohub,2013-02-08 01:15:00,
2013-02-07 20:20:00,30.4,23.4,30.36,ENE,69,1.0,7.0,75,0.00,,,0.00,meteohub,2013-02-08 01:20:00,
2013-02-07 20:25:00,30.2,23.2,30.36,ESE,103,3.0,7.0,75,0.00,,,0.00,meteohub,2013-02-08 01:25:00,
2013-02-07 20:30:00,30.0,23.0,30.36,ENE,72,0.0,7.0,75,0.00,,,0.00,meteohub,2013-02-08 01:30:00,
2013-02-07 20:35:00,30.0,23.0,30.36,East,79,1.0,6.0,75,0.00,,,0.00,meteohub,2013-02-08 01:35:00,
2013-02-07 20:40:00,29.8,22.8,30.36,East,83,0.0,5.0,75,0.00,,,0.00,meteohub,2013-02-08 01:40:00,
2013-02-07 20:45:00,29.8,22.8,30.36,East,84,0.0,5.0,75,0.00,,,0.00,meteohub,2013-02-08 01:45:00,
2013-02-07 20:50:00,29.7,22.5,30.36,East,82,0.0,5.0,74,0.00,,,0.00,meteohub,2013-02-08 01:50:00,
2013-02-07 20:55:00,29.7,22.6,30.36,East,98,0.0,5.0,75,0.00,,,0.00,meteohub,2013-02-08 01:55:00,
2013-02-07 21:00:00,29.7,22.5,30.36,East,92,2.0,5.0,74,0.00,,,0.00,meteohub,2013-02-08 02:00:00,
2013-02-07 21:06:00,29.7,22.5,30.36,ESE,115,2.0,5.0,74,0.00,,,0.00,meteohub,2013-02-08 02:06:00,
2013-02-07 21:11:00,29.7,22.5,30.36,East,79,2.0,5.0,74,0.00,,,0.00,meteohub,2013-02-08 02:11:00,
2013-02-07 21:16:00,29.7,22.5,30.36,ENE,69,0.0,4.0,74,0.00,,,0.00,meteohub,2013-02-08 02:16:00,
2013-02-07 21:21:00,29.7,22.5,30.36,East,86,0.0,4.0,74,0.00,,,0.00,meteohub,2013-02-08 02:21:00,
2013-02-07 21:26:00,29.7,22.1,30.35,East,91,0.0,4.0,73,0.00,,,0.00,meteohub,2013-02-08 02:26:00,
2013-02-07 21:31:00,29.7,22.1,30.35,East,91,0.0,3.0,73,0.00,,,0.00,meteohub,2013-02-08 02:31:00,
2013-02-07 21:36:00,29.7,22.5,30.35,ENE,74,0.0,4.0,74,0.00,,,0.00,meteohub,2013-02-08 02:36:00,
2013-02-07 21:41:00,29.7,22.5,30.34,ENE,61,1.0,4.0,74,0.00,,,0.00,meteohub,2013-02-08 02:41:00,
2013-02-07 21:46:00,29.7,22.5,30.34,ENE,61,0.0,4.0,74,0.00,,,0.00,meteohub,2013-02-08 02:46:00,
2013-02-07 21:51:00,29.7,22.5,30.34,ENE,60,1.0,4.0,74,0.00,,,0.00,meteohub,2013-02-08 02:51:00,
2013-02-07 21:56:00,29.7,22.1,30.33,ENE,64,3.0,4.0,73,0.00,,,0.00,meteohub,2013-02-08 02:56:00,
2013-02-07 22:01:00,29.8,22.3,30.33,ENE,57,3.0,5.0,73,0.00,,,0.00,meteohub,2013-02-08 03:01:00,
2013-02-07 22:06:00,29.8,22.3,30.32,ENE,69,3.0,5.0,73,0.00,,,0.00,meteohub,2013-02-08 03:06:00,
2013-02-07 22:11:00,29.8,22.3,30.32,ENE,64,4.0,5.0,73,0.00,,,0.00,meteohub,2013-02-08 03:11:00,
2013-02-07 22:16:00,29.8,22.3,30.32,ENE,65,5.0,7.0,73,0.00,,,0.00,meteohub,2013-02-08 03:16:00,
2013-02-07 22:21:00,29.8,21.9,30.32,ENE,72,3.0,7.0,72,0.00,,,0.00,meteohub,2013-02-08 03:21:00,
2013-02-07 22:26:00,29.8,21.9,30.31,NE,50,3.0,8.0,72,0.00,,,0.00,meteohub,2013-02-08 03:26:00,
2013-02-07 22:31:00,29.8,21.9,30.31,ENE,61,5.0,8.0,72,0.00,,,0.00,meteohub,2013-02-08 03:31:00,
2013-02-07 22:36:00,29.8,21.9,30.30,ENE,58,0.0,8.0,72,0.00,,,0.00,meteohub,2013-02-08 03:36:00,
2013-02-07 22:41:00,29.8,22.3,30.30,East,85,1.0,7.0,73,0.00,,,0.00,meteohub,2013-02-08 03:41:00,
2013-02-07 22:46:00,29.8,22.3,30.30,ENE,71,5.0,7.0,73,0.00,,,0.00,meteohub,2013-02-08 03:46:00,
2013-02-07 22:51:00,29.8,22.3,30.29,ENE,59,5.0,5.0,73,0.00,,,0.00,meteohub,2013-02-08 03:51:00,
2013-02-07 22:56:00,29.8,22.3,30.29,ENE,75,1.0,5.0,73,0.00,,,0.00,meteohub,2013-02-08 03:56:00,
2013-02-07 23:01:00,29.8,22.3,30.29,ENE,76,4.0,7.0,73,0.00,,,0.00,meteohub,2013-02-08 04:01:00,
2013-02-07 23:06:00,30.0,22.5,30.29,ENE,72,3.0,7.0,73,0.00,,,0.00,meteohub,2013-02-08 04:06:00,
2013-02-07 23:11:00,30.0,22.5,30.28,East,84,1.0,8.0,73,0.00,,,0.00,meteohub,2013-02-08 04:11:00,
2013-02-07 23:16:00,30.0,22.5,30.28,ENE,61,2.0,8.0,73,0.00,,,0.00,meteohub,2013-02-08 04:16:00,
2013-02-07 23:21:00,30.2,23.0,30.28,ENE,64,3.0,8.0,74,0.00,,,0.00,meteohub,2013-02-08 04:21:00,
2013-02-07 23:26:00,30.2,23.0,30.27,ENE,65,3.0,5.0,74,0.00,,,0.00,meteohub,2013-02-08 04:26:00,
2013-02-07 23:31:00,30.2,23.0,30.27,ENE,57,4.0,8.0,74,0.00,,,0.00,meteohub,2013-02-08 04:31:00,
2013-02-07 23:36:00,30.0,22.8,30.27,NE,42,4.0,8.0,74,0.00,,,0.00,meteohub,2013-02-08 04:36:00,
2013-02-07 23:41:00,30.0,22.8,30.27,ENE,64,5.0,8.0,74,0.00,,,0.00,meteohub,2013-02-08 04:41:00,
2013-02-07 23:46:00,29.8,22.6,30.27,ENE,67,5.0,7.0,74,0.00,,,0.00,meteohub,2013-02-08 04:46:00,
2013-02-07 23:51:00,29.8,22.6,30.26,ENE,62,8.0,8.0,74,0.00,,,0.00,meteohub,2013-02-08 04:51:00,
2013-02-07 23:56:00,29.7,22.5,30.26,ENE,62,4.0,8.0,74,0.00,,,0.00,meteohub,2013-02-08 04:56:00,